KHNB/HNB METAR and TAF weather

Enter ICAO airport designator
Station Type Date Time Source
KHNB METAR 2022/01/28 23:56 UTC NOAA

KHNB 282356Z AUTO 35010KT 9SM -SN FEW015 BKN027 OVC095 M05/M07 A3028 RMK AO2 SLP258 P0000 60000 T10501067 10000 21050 52009 FZRANO


Station Type Date Time Source
KHNB Decoded METAR 2022/01/28 23:56 UTC NOAA

Huntingburg, IN, United States (KHNB) 38-15N 086-57W
Jan 28, 2022 - 06:56 PM EST / 2022.01.28 2356 UTC
Wind: from the N (350 degrees) at 12 MPH (10 KT):0
Visibility: 9 mile(s):0
Sky conditions: overcast
Weather: light snow
Precipitation last hour: A trace
Temperature: 23.0 F (-5.0 C)
Windchill: 12 F (-11 C):1
Dew Point: 19.9 F (-6.7 C)
Relative Humidity: 87%
Pressure (altimeter): 30.28 in. Hg (1025 hPa)
Pressure tendency: 0.03 inches (0.9 hPa) higher than three hours ago
ob: KHNB 282356Z AUTO 35010KT 9SM -SN FEW015 BKN027 OVC095 M05/M07 A3028 RMK AO2 SLP258 P0000 60000 T10501067 10000 21050 52009 FZRANO
cycle: 0

Station Type Date Time Source
KHNB TAF 2022/01/28 18:27 UTC NOAA

TAF KHNB 281724Z 2818/2918 32010KT P6SM OVC015
TEMPO 2819/2822 3SM -SHSN
FM290100 33011G17KT P6SM BKN050
FM290500 34008KT P6SM SCT250

Example: see airport list